Hoonah Airport


Codes: PAOH/HNH
Name: Hoonah Airport
City: Hoonah
Country: United States
Elevation: 19 ft.
Wikipedia:

Photos at Hoonah Airport


   Photos courtesy of SpottingLog. You can add your own sightings and photos by signing up for a free trial today.



No photos found.

Weather at Hoonah Airport


Time (UTC)DescriptionTempratureWindCloud coverageVisibilityPressureHumidity
23-May-2024 21:00Light Rain9°C0 mph, NW100%9508m1008hPa93%
24-May-2024 00:00Light Rain9°C2 mph, NW100%10000m1009hPa95%
24-May-2024 03:00Light Rain8°C2 mph, NW100%10000m1010hPa95%
24-May-2024 06:00Light Rain7°C4 mph, NW100%9703m1012hPa95%
24-May-2024 09:00Light Rain7°C7 mph, W100%10000m1012hPa92%
24-May-2024 12:00Light Rain7°C4 mph, W100%10000m1013hPa90%
24-May-2024 15:00Overcast Clouds7°C4 mph, W98%10000m1013hPa86%
24-May-2024 18:00Overcast Clouds9°C2 mph, W90%10000m1013hPa78%
24-May-2024 21:00Broken Clouds9°C2 mph, NW67%10000m1012hPa75%
25-May-2024 00:00Broken Clouds9°C2 mph, NW79%10000m1011hPa79%
25-May-2024 03:00Overcast Clouds9°C4 mph, NW100%10000m1010hPa78%
25-May-2024 06:00Overcast Clouds7°C2 mph, NW94%10000m1009hPa86%
25-May-2024 09:00Overcast Clouds7°C2 mph, W89%10000m1009hPa87%
25-May-2024 12:00Overcast Clouds7°C2 mph, S95%10000m1007hPa87%
25-May-2024 15:00Overcast Clouds7°C2 mph, SE100%10000m1006hPa85%
25-May-2024 18:00Light Rain7°C2 mph, SE100%10000m1006hPa89%
25-May-2024 21:00Light Rain8°C4 mph, SE100%10000m1006hPa87%
26-May-2024 00:00Light Rain8°C4 mph, SE100%10000m1006hPa87%
26-May-2024 03:00Light Rain8°C4 mph, SE100%10000m1006hPa87%
26-May-2024 06:00Overcast Clouds8°C4 mph, E99%10000m1006hPa89%
26-May-2024 09:00Overcast Clouds8°C4 mph, E100%10000m1006hPa90%
26-May-2024 12:00Overcast Clouds7°C4 mph, E100%10000m1006hPa90%
26-May-2024 15:00Overcast Clouds8°C4 mph, E100%10000m1006hPa88%
26-May-2024 18:00Overcast Clouds9°C4 mph, E100%10000m1007hPa83%
26-May-2024 21:00Overcast Clouds10°C4 mph, SE99%10000m1008hPa80%
27-May-2024 00:00Light Rain10°C7 mph, SE98%10000m1009hPa82%
27-May-2024 03:00Light Rain9°C4 mph, NW92%10000m1010hPa85%
27-May-2024 06:00Light Rain8°C0 mph, E96%10000m1010hPa90%
27-May-2024 09:00Overcast Clouds7°C4 mph, SE100%10000m1011hPa92%
27-May-2024 12:00Overcast Clouds7°C4 mph, SE100%10000m1011hPa91%
27-May-2024 15:00Overcast Clouds8°C4 mph, SE100%10000m1012hPa84%
27-May-2024 18:00Light Rain11°C7 mph, SE100%10000m1012hPa70%
27-May-2024 21:00Light Rain12°C9 mph, SE99%10000m1012hPa63%
28-May-2024 00:00Light Rain11°C9 mph, SE99%10000m1013hPa69%
28-May-2024 03:00Light Rain10°C0 mph, SE87%10000m1014hPa73%
28-May-2024 06:00Light Rain8°C2 mph, NW82%10000m1015hPa86%
28-May-2024 09:00Light Rain7°C2 mph, E82%10000m1015hPa89%
28-May-2024 12:00Light Rain8°C7 mph, E91%10000m1015hPa89%
28-May-2024 15:00Overcast Clouds8°C4 mph, SE100%10000m1015hPa83%
28-May-2024 18:00Overcast Clouds9°C7 mph, SE99%10000m1015hPa77%